createdAt,value
2023-03-28T00:01:03.611Z,12.39
2023-03-28T00:03:36.008Z,12.36
2023-03-28T00:06:04.176Z,12.33
2023-03-28T00:08:31.569Z,12.48
2023-03-28T00:11:10.029Z,12.46
2023-03-28T00:13:38.091Z,12.52
2023-03-28T00:16:07.098Z,12.58
2023-03-28T00:18:37.845Z,12.59
2023-03-28T00:21:08.563Z,12.46
2023-03-28T00:23:36.156Z,12.60
2023-03-28T00:26:08.056Z,12.59
2023-03-28T00:28:35.650Z,12.53
2023-03-28T00:31:04.016Z,12.59
2023-03-28T00:33:31.276Z,12.54
2023-03-28T00:35:58.774Z,12.54
2023-03-28T00:38:29.383Z,12.56
2023-03-28T00:40:58.176Z,12.57
2023-03-28T00:43:39.583Z,12.53
2023-03-28T00:46:27.077Z,12.59
2023-03-28T00:49:21.641Z,12.72
2023-03-28T00:51:52.546Z,12.78
2023-03-28T00:54:20.654Z,12.75
2023-03-28T00:56:49.373Z,12.78
2023-03-28T00:59:18.981Z,12.80
2023-03-28T01:01:46.882Z,12.83
2023-03-28T01:04:20.735Z,12.84
2023-03-28T01:06:52.060Z,12.91
2023-03-28T01:09:21.480Z,12.87
2023-03-28T01:11:52.557Z,12.84
2023-03-28T01:14:21.815Z,12.79
2023-03-28T01:16:51.852Z,12.79
2023-03-28T01:19:22.198Z,12.90
2023-03-28T01:22:02.716Z,12.94
2023-03-28T01:24:30.709Z,12.95
2023-03-28T01:27:19.736Z,12.89
2023-03-28T01:30:07.786Z,12.87
2023-03-28T01:33:15.127Z,12.59
2023-03-28T01:36:01.431Z,12.74
2023-03-28T01:38:28.971Z,12.75
2023-03-28T01:41:00.447Z,12.85
2023-03-28T01:43:45.500Z,13.03
2023-03-28T01:46:19.705Z,13.00
2023-03-28T01:49:05.263Z,13.09
2023-03-28T01:51:41.816Z,13.10
2023-03-28T01:54:18.295Z,13.12
2023-03-28T01:56:54.541Z,13.04
2023-03-28T01:59:31.258Z,12.94
2023-03-28T02:02:37.264Z,12.93
2023-03-28T02:05:21.347Z,12.87
2023-03-28T02:07:52.135Z,12.83
2023-03-28T02:10:26.538Z,12.81
2023-03-28T02:12:59.673Z,12.80
2023-03-28T02:15:53.112Z,12.82
2023-03-28T02:18:51.815Z,12.79
2023-03-28T02:21:47.779Z,12.78
2023-03-28T02:24:28.544Z,12.82
2023-03-28T02:27:11.642Z,12.80
2023-03-28T02:29:49.729Z,12.83
2023-03-28T02:32:22.152Z,12.82
2023-03-28T02:34:50.580Z,12.85
2023-03-28T02:37:33.162Z,12.92
2023-03-28T02:40:08.508Z,12.94
2023-03-28T02:42:35.867Z,12.96
2023-03-28T02:45:09.418Z,12.96
2023-03-28T02:47:39.435Z,13.01
2023-03-28T02:50:07.175Z,12.99
2023-03-28T02:52:50.884Z,13.02
2023-03-28T02:55:25.957Z,13.05
2023-03-28T02:58:02.217Z,13.06
2023-03-28T03:00:29.982Z,13.10
2023-03-28T03:02:57.396Z,13.17
2023-03-28T03:05:24.854Z,13.21
2023-03-28T03:07:52.424Z,13.26
2023-03-28T03:10:20.438Z,13.30
2023-03-28T03:12:48.301Z,13.33
2023-03-28T03:15:17.336Z,13.35
2023-03-28T03:17:53.893Z,13.39
2023-03-28T03:20:26.736Z,13.44
2023-03-28T03:22:54.826Z,13.45
2023-03-28T03:25:22.102Z,13.46
2023-03-28T03:27:56.093Z,13.47
2023-03-28T03:30:23.729Z,13.51
2023-03-28T03:33:11.647Z,13.53
2023-03-28T03:35:48.133Z,13.60
2023-03-28T03:38:16.600Z,13.70
2023-03-28T03:40:43.847Z,13.75
2023-03-28T03:43:11.473Z,13.81
2023-03-28T03:45:40.979Z,13.88
2023-03-28T03:48:09.575Z,14.00
2023-03-28T03:50:37.778Z,14.05
2023-03-28T03:53:11.887Z,14.04
2023-03-28T03:55:47.207Z,14.05
2023-03-28T03:58:14.449Z,14.15
2023-03-28T04:00:45.028Z,14.15
2023-03-28T04:03:27.345Z,14.17
2023-03-28T04:05:58.252Z,14.21
2023-03-28T04:08:25.861Z,14.20
2023-03-28T04:10:53.153Z,14.23
2023-03-28T04:13:20.823Z,14.34
2023-03-28T04:15:53.679Z,14.46
2023-03-28T04:18:37.692Z,14.50
2023-03-28T04:21:05.889Z,14.50
2023-03-28T04:23:44.051Z,14.61
2023-03-28T04:26:29.220Z,14.75
2023-03-28T04:29:04.432Z,15.00
2023-03-28T04:31:36.212Z,15.15
2023-03-28T04:34:25.861Z,15.28
2023-03-28T04:37:15.715Z,15.41
2023-03-28T04:39:54.411Z,15.58
2023-03-28T04:42:45.761Z,15.75
2023-03-28T04:45:17.914Z,15.93
2023-03-28T04:47:47.101Z,16.05
2023-03-28T04:50:17.206Z,16.16
2023-03-28T04:52:44.963Z,16.24
2023-03-28T04:55:12.633Z,16.34
2023-03-28T04:57:40.650Z,16.39
2023-03-28T05:00:10.769Z,16.49
2023-03-28T05:03:07.358Z,16.60
2023-03-28T05:05:41.745Z,16.69
2023-03-28T05:08:13.415Z,16.80
2023-03-28T05:10:41.388Z,16.97
2023-03-28T05:13:10.482Z,17.13
2023-03-28T05:15:46.938Z,17.36
2023-03-28T05:18:36.135Z,17.57
2023-03-28T05:21:04.109Z,17.52
2023-03-28T05:23:31.382Z,17.61
2023-03-28T05:26:00.048Z,17.72
2023-03-28T05:28:31.721Z,17.77
2023-03-28T05:31:00.584Z,17.74
2023-03-28T05:33:28.130Z,17.67
2023-03-28T05:35:55.624Z,17.70
2023-03-28T05:38:23.413Z,17.74
2023-03-28T05:40:56.693Z,17.85
2023-03-28T05:43:24.048Z,17.94
2023-03-28T05:45:51.641Z,18.07
2023-03-28T05:48:22.044Z,18.25
2023-03-28T05:50:52.400Z,18.47
2023-03-28T05:53:20.539Z,18.73
2023-03-28T05:55:49.034Z,19.05
2023-03-28T05:58:17.817Z,19.42
2023-03-28T06:00:45.089Z,19.73
2023-03-28T06:03:16.614Z,20.01
2023-03-28T06:05:46.381Z,20.40
2023-03-28T06:08:20.496Z,20.71
2023-03-28T06:10:48.896Z,21.02
2023-03-28T06:13:20.961Z,21.28
2023-03-28T06:15:48.826Z,21.50
2023-03-28T06:18:17.722Z,21.75
2023-03-28T06:20:48.603Z,22.02
2023-03-28T06:23:16.233Z,22.32
2023-03-28T06:25:44.255Z,22.56
2023-03-28T06:28:14.450Z,22.83
2023-03-28T06:31:14.339Z,22.95
2023-03-28T06:33:43.178Z,23.02
2023-03-28T06:36:11.577Z,23.14
2023-03-28T06:38:39.294Z,23.24
2023-03-28T06:41:07.407Z,23.36
2023-03-28T06:43:36.897Z,23.50
2023-03-28T06:46:08.636Z,23.67
2023-03-28T06:48:39.793Z,23.89
2023-03-28T06:51:44.833Z,24.12
2023-03-28T06:54:12.410Z,24.25
2023-03-28T06:56:39.780Z,24.35
2023-03-28T06:59:07.285Z,24.43
2023-03-28T07:01:35.583Z,24.51
2023-03-28T07:04:07.026Z,24.48
2023-03-28T07:06:35.741Z,24.50
2023-03-28T07:09:05.485Z,24.46
2023-03-28T07:11:39.983Z,24.51
2023-03-28T07:14:07.264Z,24.46
2023-03-28T07:16:34.603Z,24.44
2023-03-28T07:19:01.895Z,24.36
2023-03-28T07:21:33.123Z,24.33
2023-03-28T07:24:03.322Z,24.20
2023-03-28T07:26:42.914Z,24.05
2023-03-28T07:29:10.263Z,23.93
2023-03-28T07:31:38.085Z,23.95
2023-03-28T07:34:05.416Z,23.96
2023-03-28T07:36:32.880Z,24.01
2023-03-28T07:39:09.649Z,24.01
2023-03-28T07:41:38.091Z,24.01
2023-03-28T07:44:05.317Z,24.00
2023-03-28T07:46:32.726Z,24.16
2023-03-28T07:49:01.128Z,24.06
2023-03-28T07:51:29.341Z,23.80
2023-03-28T07:53:56.692Z,23.84
2023-03-28T07:56:24.050Z,23.83
2023-03-28T07:59:10.516Z,23.76
2023-03-28T08:01:38.530Z,23.67
2023-03-28T08:04:06.491Z,23.53
2023-03-28T08:06:52.571Z,23.25
2023-03-28T08:09:20.861Z,22.94
2023-03-28T08:11:54.269Z,22.80
2023-03-28T08:14:21.508Z,22.71
2023-03-28T08:16:49.218Z,22.57
2023-03-28T08:19:16.790Z,22.45
2023-03-28T08:22:04.023Z,22.31
2023-03-28T08:24:37.844Z,22.29
2023-03-28T08:27:12.260Z,22.25
2023-03-28T08:29:41.408Z,22.17
2023-03-28T08:32:10.001Z,22.03
2023-03-28T08:34:38.336Z,21.95
2023-03-28T08:37:12.191Z,21.98
2023-03-28T08:39:42.943Z,21.97
2023-03-28T08:42:22.878Z,21.93
2023-03-28T08:45:12.718Z,21.87
2023-03-28T08:47:48.147Z,21.82
2023-03-28T08:50:17.580Z,21.74
2023-03-28T08:52:47.544Z,21.76
2023-03-28T08:55:24.600Z,21.71
2023-03-28T08:57:54.452Z,21.71
2023-03-28T09:00:30.180Z,21.68
2023-03-28T09:02:58.605Z,21.65
2023-03-28T09:05:26.873Z,21.66
2023-03-28T09:08:04.720Z,21.68
2023-03-28T09:10:56.135Z,21.65
2023-03-28T09:13:23.504Z,21.63
2023-03-28T09:16:01.496Z,21.50
2023-03-28T09:18:44.989Z,21.43
2023-03-28T09:21:18.439Z,21.14
2023-03-28T09:23:49.664Z,21.09
2023-03-28T09:26:32.653Z,21.03
2023-03-28T09:29:06.585Z,21.02
2023-03-28T09:31:38.706Z,20.97
2023-03-28T09:34:07.516Z,20.78
2023-03-28T09:36:49.557Z,20.77
2023-03-28T09:39:37.172Z,20.76
2023-03-28T09:42:16.469Z,20.71
2023-03-28T09:45:12.739Z,20.76
2023-03-28T09:48:19.038Z,20.66
2023-03-28T09:50:47.680Z,20.58
2023-03-28T09:53:22.075Z,20.51
2023-03-28T09:56:03.354Z,20.49
2023-03-28T09:58:48.097Z,20.51
2023-03-28T10:01:28.836Z,20.49
2023-03-28T10:04:16.100Z,20.43
2023-03-28T10:07:04.667Z,20.38
2023-03-28T10:09:32.569Z,20.38
2023-03-28T10:12:10.275Z,20.27
2023-03-28T10:14:40.155Z,20.11
2023-03-28T10:17:24.036Z,20.00
2023-03-28T10:19:52.586Z,19.93
2023-03-28T10:22:25.278Z,19.91
2023-03-28T10:24:54.231Z,19.81
2023-03-28T10:27:32.228Z,19.72
2023-03-28T10:30:09.674Z,19.80
2023-03-28T10:32:38.226Z,19.73
2023-03-28T10:35:30.330Z,19.73
2023-03-28T10:38:24.102Z,19.80
2023-03-28T10:41:26.081Z,19.69
2023-03-28T10:44:33.147Z,19.62
2023-03-28T10:47:15.144Z,19.53
2023-03-28T10:49:54.445Z,19.59
2023-03-28T10:52:34.225Z,19.59
2023-03-28T10:55:13.893Z,19.58
2023-03-28T10:58:15.136Z,19.54
2023-03-28T11:00:59.789Z,19.62
2023-03-28T11:03:39.449Z,19.69
2023-03-28T11:06:12.435Z,19.72
2023-03-28T11:08:42.985Z,19.68
2023-03-28T11:11:32.144Z,19.54
2023-03-28T11:14:11.158Z,19.57
2023-03-28T11:16:52.619Z,19.57
2023-03-28T11:19:56.706Z,19.43
2023-03-28T11:22:39.140Z,19.33
2023-03-28T11:25:07.192Z,19.23
2023-03-28T11:28:20.930Z,19.03
2023-03-28T11:30:56.458Z,18.81
2023-03-28T11:33:55.978Z,18.39
2023-03-28T11:36:29.715Z,18.21
2023-03-28T11:39:06.838Z,18.26
2023-03-28T11:41:37.407Z,18.21
2023-03-28T11:44:29.362Z,18.29
2023-03-28T11:46:56.780Z,18.21
2023-03-28T11:49:29.791Z,18.17
2023-03-28T11:52:00.160Z,18.18
2023-03-28T11:54:29.040Z,18.16
2023-03-28T11:56:59.425Z,18.04
2023-03-28T11:59:44.049Z,17.86
2023-03-28T12:02:47.859Z,17.66
2023-03-28T12:05:25.460Z,17.48
2023-03-28T12:07:58.552Z,17.39
2023-03-28T12:10:29.513Z,17.08
2023-03-28T12:12:58.204Z,17.12
2023-03-28T12:15:38.185Z,17.08
2023-03-28T12:18:33.190Z,17.04
2023-03-28T12:21:07.564Z,17.03
2023-03-28T12:23:40.584Z,16.90
2023-03-28T12:26:49.172Z,16.89
2023-03-28T12:29:17.672Z,16.77
2023-03-28T12:31:51.335Z,16.73
2023-03-28T12:34:22.414Z,16.68
2023-03-28T12:37:29.290Z,16.62
2023-03-28T12:40:14.727Z,16.49
2023-03-28T12:42:43.616Z,16.43
2023-03-28T12:45:29.769Z,16.30
2023-03-28T12:48:02.719Z,16.23
2023-03-28T12:50:37.984Z,16.04
2023-03-28T12:53:11.100Z,15.99
2023-03-28T12:55:45.833Z,15.94
2023-03-28T12:58:20.526Z,15.92
2023-03-28T13:01:03.249Z,15.88
2023-03-28T13:03:42.690Z,15.81
2023-03-28T13:06:25.276Z,15.72
2023-03-28T13:09:02.233Z,15.69
2023-03-28T13:11:36.633Z,15.69
2023-03-28T13:14:22.577Z,15.60
2023-03-28T13:16:49.825Z,15.54
2023-03-28T13:19:19.754Z,15.45
2023-03-28T13:21:50.266Z,15.42
2023-03-28T13:24:27.052Z,15.40
2023-03-28T13:26:59.027Z,15.33
2023-03-28T13:29:43.914Z,15.30
2023-03-28T13:32:18.957Z,15.29
2023-03-28T13:35:00.202Z,15.25
2023-03-28T13:37:39.118Z,15.18
2023-03-28T13:40:26.592Z,15.01
2023-03-28T13:43:00.052Z,15.03
2023-03-28T13:45:28.420Z,14.99
2023-03-28T13:48:09.987Z,14.95
2023-03-28T13:50:40.372Z,14.90
2023-03-28T13:53:07.735Z,14.92
2023-03-28T13:55:35.072Z,14.88
2023-03-28T13:58:02.363Z,14.85
2023-03-28T14:00:31.293Z,14.81
2023-03-28T14:03:02.457Z,14.72
2023-03-28T14:05:31.409Z,14.56
2023-03-28T14:08:04.017Z,14.43
2023-03-28T14:10:36.341Z,14.49
2023-03-28T14:13:06.420Z,14.47
2023-03-28T14:15:36.426Z,14.36
2023-03-28T14:18:04.043Z,14.26
2023-03-28T14:20:32.813Z,14.18
2023-03-28T14:23:01.444Z,14.14
2023-03-28T14:25:29.352Z,14.05
2023-03-28T14:27:57.340Z,14.01
2023-03-28T14:30:26.418Z,13.92
2023-03-28T14:33:23.216Z,14.01
2023-03-28T14:35:58.380Z,14.04
2023-03-28T14:38:39.796Z,14.02
2023-03-28T14:41:08.846Z,14.01
2023-03-28T14:43:37.517Z,14.00
2023-03-28T14:46:06.799Z,13.96
2023-03-28T14:48:34.917Z,14.00
2023-03-28T14:51:04.260Z,13.98
2023-03-28T14:53:35.944Z,13.92
2023-03-28T14:56:09.133Z,13.90
2023-03-28T14:58:38.685Z,13.90
2023-03-28T15:01:07.535Z,13.85
2023-03-28T15:03:39.411Z,13.88
2023-03-28T15:06:07.742Z,13.82
2023-03-28T15:08:38.059Z,13.80
2023-03-28T15:11:07.596Z,13.78
2023-03-28T15:13:34.911Z,13.78
2023-03-28T15:16:04.701Z,13.78
2023-03-28T15:18:34.446Z,13.75
2023-03-28T15:21:02.941Z,13.76
2023-03-28T15:23:43.537Z,13.75
2023-03-28T15:26:18.048Z,13.73
2023-03-28T15:28:47.062Z,13.70
2023-03-28T15:31:29.521Z,13.65
2023-03-28T15:34:14.791Z,13.61
2023-03-28T15:36:54.436Z,13.52
2023-03-28T15:39:35.411Z,13.53
2023-03-28T15:42:23.879Z,13.51
2023-03-28T15:44:57.031Z,13.47
2023-03-28T15:47:26.242Z,13.47
2023-03-28T15:50:11.404Z,13.53
2023-03-28T15:52:55.816Z,13.47
2023-03-28T15:55:24.152Z,13.49
2023-03-28T15:57:51.419Z,13.46
2023-03-28T16:00:37.634Z,13.34
2023-03-28T16:03:17.006Z,13.36
2023-03-28T16:05:50.764Z,13.26
2023-03-28T16:08:26.544Z,13.29
2023-03-28T16:10:55.542Z,13.27
2023-03-28T16:13:35.006Z,13.25
2023-03-28T16:16:29.132Z,13.17
2023-03-28T16:19:21.972Z,13.18
2023-03-28T16:21:49.384Z,13.11
2023-03-28T16:24:16.989Z,13.09
2023-03-28T16:26:44.412Z,13.06
2023-03-28T16:29:11.904Z,13.05
2023-03-28T16:31:39.476Z,13.04
2023-03-28T16:34:09.323Z,12.99
2023-03-28T16:36:37.979Z,13.03
2023-03-28T16:39:25.550Z,12.96
2023-03-28T16:41:53.061Z,12.93
2023-03-28T16:44:20.621Z,12.92
2023-03-28T16:46:57.392Z,12.89
2023-03-28T16:49:26.903Z,12.82
2023-03-28T16:51:55.239Z,12.80
2023-03-28T16:54:23.023Z,12.79
2023-03-28T16:56:58.236Z,12.77
2023-03-28T16:59:26.339Z,12.74
2023-03-28T17:01:54.048Z,12.70
2023-03-28T17:04:21.679Z,12.70
2023-03-28T17:06:49.217Z,12.66
2023-03-28T17:09:16.758Z,12.63
2023-03-28T17:11:44.178Z,12.63
2023-03-28T17:14:11.722Z,12.59
2023-03-28T17:16:40.757Z,12.57
2023-03-28T17:19:11.665Z,12.49
2023-03-28T17:21:39.492Z,12.50
2023-03-28T17:24:11.636Z,12.40
2023-03-28T17:27:01.286Z,12.37
2023-03-28T17:29:28.868Z,12.36
2023-03-28T17:31:56.372Z,12.34
2023-03-28T17:34:24.210Z,12.31
2023-03-28T17:36:53.686Z,12.29
2023-03-28T17:39:22.004Z,12.25
2023-03-28T17:41:49.332Z,12.24
2023-03-28T17:44:17.010Z,12.13
2023-03-28T17:46:45.920Z,12.11
2023-03-28T17:49:14.038Z,12.05
2023-03-28T17:51:42.560Z,12.07
2023-03-28T17:54:12.487Z,12.04
2023-03-28T17:56:40.239Z,11.97
2023-03-28T17:59:07.762Z,11.91
2023-03-28T18:01:35.273Z,11.91
2023-03-28T18:04:02.924Z,11.92
2023-03-28T18:06:56.457Z,11.90
2023-03-28T18:09:23.891Z,11.88
2023-03-28T18:11:51.637Z,11.86
2023-03-28T18:14:18.895Z,11.73
2023-03-28T18:16:46.383Z,11.73
2023-03-28T18:19:17.986Z,11.67
2023-03-28T18:21:46.037Z,11.66
2023-03-28T18:24:13.391Z,11.65
2023-03-28T18:26:40.895Z,11.67
2023-03-28T18:29:08.186Z,11.64
2023-03-28T18:31:37.101Z,11.59
2023-03-28T18:34:05.463Z,11.57
2023-03-28T18:36:36.273Z,11.53
2023-03-28T18:39:10.918Z,11.53
2023-03-28T18:41:38.119Z,11.52
2023-03-28T18:44:05.595Z,11.50
2023-03-28T18:46:34.177Z,11.48
2023-03-28T18:49:02.178Z,11.44
2023-03-28T18:51:29.487Z,11.44
2023-03-28T18:53:57.479Z,11.43
2023-03-28T18:56:24.766Z,11.37
2023-03-28T18:58:52.586Z,11.37
2023-03-28T19:01:21.045Z,11.27
2023-03-28T19:03:50.069Z,11.21
2023-03-28T19:06:17.418Z,11.21
2023-03-28T19:08:45.215Z,11.19
2023-03-28T19:11:14.100Z,11.17
2023-03-28T19:13:41.966Z,11.16
2023-03-28T19:16:10.958Z,11.17
2023-03-28T19:18:39.330Z,11.15
2023-03-28T19:21:07.276Z,11.11
2023-03-28T19:23:37.084Z,11.07
2023-03-28T19:26:08.560Z,11.09
2023-03-28T19:28:36.252Z,11.09
2023-03-28T19:31:05.397Z,11.10
2023-03-28T19:33:33.004Z,11.08
2023-03-28T19:36:00.684Z,11.07
2023-03-28T19:38:31.039Z,11.06
2023-03-28T19:40:59.108Z,11.04
2023-03-28T19:43:26.989Z,11.00
2023-03-28T19:45:54.444Z,10.95
2023-03-28T19:48:21.760Z,10.91
2023-03-28T19:50:50.696Z,10.87
2023-03-28T19:53:18.003Z,10.84
2023-03-28T19:55:50.734Z,10.84
2023-03-28T19:58:17.961Z,10.82
2023-03-28T20:00:45.326Z,10.78
2023-03-28T20:03:12.733Z,10.78
2023-03-28T20:05:46.553Z,10.74
2023-03-28T20:08:13.773Z,10.75
2023-03-28T20:10:44.648Z,10.76
2023-03-28T20:13:11.954Z,10.76
2023-03-28T20:15:41.718Z,10.75
2023-03-28T20:18:30.038Z,10.75
2023-03-28T20:20:58.567Z,10.77
2023-03-28T20:23:27.290Z,10.76
2023-03-28T20:25:54.963Z,10.78
2023-03-28T20:28:25.019Z,10.75
2023-03-28T20:30:53.822Z,10.76
2023-03-28T20:33:21.354Z,10.71
2023-03-28T20:35:55.998Z,10.69
2023-03-28T20:38:23.754Z,10.72
2023-03-28T20:40:51.405Z,10.71
2023-03-28T20:43:21.560Z,10.64
2023-03-28T20:45:54.295Z,10.63
2023-03-28T20:48:26.166Z,10.61
2023-03-28T20:50:56.202Z,10.54
2023-03-28T20:53:23.444Z,10.52
2023-03-28T20:55:58.833Z,10.45
2023-03-28T20:58:26.160Z,10.44
2023-03-28T21:00:57.392Z,10.39
2023-03-28T21:03:45.063Z,10.35
2023-03-28T21:06:13.300Z,10.31
2023-03-28T21:08:40.527Z,10.26
2023-03-28T21:11:08.432Z,10.20
2023-03-28T21:13:35.984Z,10.15
2023-03-28T21:16:03.327Z,10.08
2023-03-28T21:18:30.576Z,10.05
2023-03-28T21:20:58.623Z,10.03
2023-03-28T21:23:25.889Z,9.98
2023-03-28T21:25:53.675Z,9.95
2023-03-28T21:28:20.987Z,9.91
2023-03-28T21:30:58.341Z,9.92
2023-03-28T21:33:25.679Z,9.89
2023-03-28T21:35:53.001Z,9.92
2023-03-28T21:38:20.539Z,9.84
2023-03-28T21:40:48.124Z,9.81
2023-03-28T21:43:15.788Z,9.79
2023-03-28T21:45:49.558Z,9.77
2023-03-28T21:48:17.267Z,9.78
2023-03-28T21:50:53.659Z,9.70
2023-03-28T21:53:21.624Z,9.73
2023-03-28T21:55:48.888Z,9.73
2023-03-28T21:58:16.173Z,9.72
2023-03-28T22:00:43.622Z,9.73
2023-03-28T22:03:11.328Z,9.67
2023-03-28T22:05:43.049Z,9.65
2023-03-28T22:08:12.578Z,9.66
2023-03-28T22:10:51.705Z,9.64
2023-03-28T22:13:19.352Z,9.67
2023-03-28T22:15:46.818Z,9.68
2023-03-28T22:18:14.160Z,9.65
2023-03-28T22:20:43.950Z,9.59
2023-03-28T22:23:11.753Z,9.58
2023-03-28T22:25:39.261Z,9.59
2023-03-28T22:28:07.869Z,9.59
2023-03-28T22:30:36.277Z,9.57
2023-03-28T22:33:04.480Z,9.55
2023-03-28T22:35:34.032Z,9.50
2023-03-28T22:38:01.746Z,9.46
2023-03-28T22:40:29.123Z,9.44
2023-03-28T22:42:57.170Z,9.37
2023-03-28T22:45:24.946Z,9.27
2023-03-28T22:47:52.618Z,9.18
2023-03-28T22:50:20.032Z,8.82
2023-03-28T22:52:50.409Z,8.70
2023-03-28T22:55:17.930Z,8.49
2023-03-28T22:57:45.635Z,8.11
2023-03-28T23:00:13.874Z,8.08
2023-03-28T23:02:41.853Z,8.09
2023-03-28T23:05:09.802Z,8.13
2023-03-28T23:07:37.747Z,8.15
2023-03-28T23:10:05.880Z,8.20
2023-03-28T23:12:33.093Z,7.84
2023-03-28T23:15:00.413Z,7.96
2023-03-28T23:17:28.677Z,7.88
2023-03-28T23:19:56.071Z,7.88
2023-03-28T23:22:23.977Z,7.91
2023-03-28T23:24:51.841Z,7.89
2023-03-28T23:27:19.373Z,7.88
2023-03-28T23:29:47.011Z,7.79
2023-03-28T23:32:14.216Z,7.79
2023-03-28T23:34:41.390Z,7.70
2023-03-28T23:37:10.290Z,7.75
2023-03-28T23:39:38.444Z,7.59
2023-03-28T23:42:06.033Z,7.59
2023-03-28T23:44:34.372Z,7.47
2023-03-28T23:47:01.653Z,7.28
2023-03-28T23:49:28.931Z,7.24
2023-03-28T23:51:56.588Z,7.19
2023-03-28T23:54:25.630Z,7.24
2023-03-28T23:56:53.046Z,7.16
2023-03-28T23:59:20.267Z,7.06
